DEMKM EDDL-EDDL
Flight info
| Callsign | DEMKM |
|---|---|
| Flight time | 0h 25m |
| Altitude | 2200 |
| Route | DCT |
| Aircraft | C172/L-S/G |
Departure
| Time | 2026-05-05 13:15 |
|---|---|
| Airport | Düsseldorf Airport (EDDL) |
Arrival
| Time | 2026-05-05 13:41 |
|---|---|
| Airport | Düsseldorf Airport (EDDL) |
| Time | Latitude | Longitude | Altitude | Speed | Heading |
|---|---|---|---|---|---|
| 2026-05-05 13:05 | 51.27617 | 6.75266 | 116 ft | 0 kts | 242° |
| 2026-05-05 13:11 | 51.27615 | 6.75259 | 116 ft | 6 kts | 244° |
| 2026-05-05 13:11 | 51.27631 | 6.75196 | 115 ft | 7 kts | 351° |
| 2026-05-05 13:11 | 51.27693 | 6.75194 | 115 ft | 12 kts | 6° |
| 2026-05-05 13:12 | 51.27769 | 6.75266 | 118 ft | 12 kts | 53° |
| 2026-05-05 13:12 | 51.27810 | 6.75349 | 120 ft | 7 kts | 39° |
| 2026-05-05 13:12 | 51.27855 | 6.75338 | 118 ft | 9 kts | 333° |
| 2026-05-05 13:12 | 51.27888 | 6.75312 | 119 ft | 0 kts | 329° |
| 2026-05-05 13:13 | 51.27890 | 6.75310 | 119 ft | 5 kts | 333° |
| 2026-05-05 13:13 | 51.27949 | 6.75269 | 118 ft | 15 kts | 346° |
| 2026-05-05 13:13 | 51.28032 | 6.75349 | 120 ft | 9 kts | 54° |
| 2026-05-05 13:13 | 51.28034 | 6.75355 | 120 ft | 0 kts | 53° |
| 2026-05-05 13:14 | 51.28080 | 6.75450 | 121 ft | 34 kts | 55° |
| 2026-05-05 13:14 | 51.28324 | 6.75969 | 134 ft | 76 kts | 47° |
| 2026-05-05 13:14 | 51.28664 | 6.76661 | 308 ft | 82 kts | 45° |
| 2026-05-05 13:15 | 51.29008 | 6.77408 | 519 ft | 87 kts | 51° |
| 2026-05-05 13:15 | 51.28841 | 6.78381 | 642 ft | 115 kts | 142° |
| 2026-05-05 13:15 | 51.28142 | 6.79182 | 777 ft | 120 kts | 143° |
| 2026-05-05 13:15 | 51.27411 | 6.79748 | 987 ft | 121 kts | 159° |
| 2026-05-05 13:16 | 51.26539 | 6.79902 | 1087 ft | 127 kts | 194° |
| 2026-05-05 13:16 | 51.25769 | 6.79218 | 1269 ft | 126 kts | 215° |
| 2026-05-05 13:16 | 51.25028 | 6.78446 | 1415 ft | 127 kts | 216° |
| 2026-05-05 13:16 | 51.24307 | 6.77609 | 1494 ft | 130 kts | 220° |
| 2026-05-05 13:17 | 51.23575 | 6.76789 | 1576 ft | 131 kts | 213° |
| 2026-05-05 13:17 | 51.22803 | 6.76022 | 1669 ft | 131 kts | 213° |
| 2026-05-05 13:17 | 51.22056 | 6.75251 | 1641 ft | 128 kts | 213° |
| 2026-05-05 13:17 | 51.21288 | 6.74502 | 1631 ft | 128 kts | 213° |
| 2026-05-05 13:18 | 51.20543 | 6.73745 | 1571 ft | 126 kts | 212° |
| 2026-05-05 13:18 | 51.19702 | 6.73558 | 1719 ft | 124 kts | 158° |
| 2026-05-05 13:18 | 51.18882 | 6.74002 | 1802 ft | 129 kts | 158° |
| 2026-05-05 13:18 | 51.18029 | 6.74429 | 1923 ft | 125 kts | 159° |
| 2026-05-05 13:19 | 51.17204 | 6.74868 | 1892 ft | 123 kts | 159° |
| 2026-05-05 13:19 | 51.16416 | 6.75371 | 1888 ft | 123 kts | 148° |
| 2026-05-05 13:19 | 51.15667 | 6.76051 | 1930 ft | 124 kts | 146° |
| 2026-05-05 13:19 | 51.14937 | 6.76780 | 1968 ft | 125 kts | 141° |
| 2026-05-05 13:20 | 51.14198 | 6.77524 | 1986 ft | 126 kts | 144° |
| 2026-05-05 13:20 | 51.13419 | 6.78200 | 1982 ft | 128 kts | 151° |
| 2026-05-05 13:20 | 51.12631 | 6.78839 | 1991 ft | 126 kts | 152° |
| 2026-05-05 13:20 | 51.11847 | 6.79450 | 1991 ft | 125 kts | 154° |
| 2026-05-05 13:21 | 51.11072 | 6.80034 | 1991 ft | 123 kts | 155° |
| 2026-05-05 13:21 | 51.10291 | 6.80596 | 1993 ft | 124 kts | 155° |
| 2026-05-05 13:21 | 51.09493 | 6.81150 | 1993 ft | 125 kts | 156° |
| 2026-05-05 13:21 | 51.08686 | 6.81683 | 1989 ft | 126 kts | 157° |
| 2026-05-05 13:22 | 51.07874 | 6.82201 | 1991 ft | 126 kts | 158° |
| 2026-05-05 13:22 | 51.07055 | 6.82695 | 1992 ft | 126 kts | 160° |
| 2026-05-05 13:22 | 51.06308 | 6.83354 | 1972 ft | 123 kts | 123° |
| 2026-05-05 13:22 | 51.06072 | 6.84612 | 1986 ft | 119 kts | 99° |
| 2026-05-05 13:23 | 51.05895 | 6.85872 | 2014 ft | 118 kts | 99° |
| 2026-05-05 13:23 | 51.05729 | 6.87142 | 2013 ft | 117 kts | 98° |
| 2026-05-05 13:23 | 51.05546 | 6.88402 | 2006 ft | 118 kts | 98° |
| 2026-05-05 13:23 | 51.05357 | 6.89699 | 2012 ft | 122 kts | 99° |
| 2026-05-05 13:24 | 51.05168 | 6.91004 | 2009 ft | 120 kts | 98° |
| 2026-05-05 13:24 | 51.04983 | 6.92251 | 2000 ft | 112 kts | 99° |
| 2026-05-05 13:24 | 51.04814 | 6.93453 | 1994 ft | 110 kts | 100° |
| 2026-05-05 13:24 | 51.04627 | 6.94635 | 2005 ft | 111 kts | 98° |
| 2026-05-05 13:25 | 51.04433 | 6.95823 | 2003 ft | 115 kts | 99° |
| 2026-05-05 13:25 | 51.04296 | 6.97053 | 1981 ft | 110 kts | 77° |
| 2026-05-05 13:25 | 51.04558 | 6.98081 | 1986 ft | 92 kts | 53° |
| 2026-05-05 13:25 | 51.05039 | 6.98453 | 2000 ft | 77 kts | 4° |
| 2026-05-05 13:26 | 51.05628 | 6.98655 | 2049 ft | 100 kts | 8° |
| 2026-05-05 13:26 | 51.06366 | 6.98849 | 2010 ft | 110 kts | 9° |
| 2026-05-05 13:26 | 51.07131 | 6.99000 | 2000 ft | 111 kts | 354° |
| 2026-05-05 13:26 | 51.07867 | 6.98728 | 2002 ft | 107 kts | 347° |
| 2026-05-05 13:27 | 51.08597 | 6.98433 | 2009 ft | 109 kts | 346° |
| 2026-05-05 13:27 | 51.09337 | 6.98124 | 2023 ft | 110 kts | 346° |
| 2026-05-05 13:27 | 51.10080 | 6.97814 | 2007 ft | 110 kts | 346° |
| 2026-05-05 13:27 | 51.10810 | 6.97521 | 2007 ft | 106 kts | 346° |
| 2026-05-05 13:28 | 51.11511 | 6.97203 | 2012 ft | 103 kts | 345° |
| 2026-05-05 13:28 | 51.12207 | 6.96885 | 2018 ft | 106 kts | 346° |
| 2026-05-05 13:28 | 51.12926 | 6.96553 | 2021 ft | 109 kts | 346° |
| 2026-05-05 13:28 | 51.13654 | 6.96189 | 2018 ft | 111 kts | 347° |
| 2026-05-05 13:29 | 51.14403 | 6.95809 | 2027 ft | 115 kts | 346° |
| 2026-05-05 13:29 | 51.15172 | 6.95440 | 2023 ft | 114 kts | 347° |
| 2026-05-05 13:29 | 51.15889 | 6.95121 | 2011 ft | 101 kts | 348° |
| 2026-05-05 13:29 | 51.16552 | 6.94831 | 2019 ft | 99 kts | 348° |
| 2026-05-05 13:30 | 51.17248 | 6.94550 | 2031 ft | 108 kts | 349° |
| 2026-05-05 13:30 | 51.18006 | 6.94285 | 2034 ft | 114 kts | 351° |
| 2026-05-05 13:30 | 51.18784 | 6.93989 | 2033 ft | 115 kts | 350° |
| 2026-05-05 13:30 | 51.19522 | 6.93481 | 2015 ft | 121 kts | 321° |
| 2026-05-05 13:31 | 51.20089 | 6.92492 | 2022 ft | 121 kts | 318° |
| 2026-05-05 13:31 | 51.20671 | 6.91530 | 2023 ft | 121 kts | 320° |
| 2026-05-05 13:31 | 51.21237 | 6.90551 | 2026 ft | 120 kts | 319° |
| 2026-05-05 13:31 | 51.21796 | 6.89542 | 2028 ft | 125 kts | 308° |
| 2026-05-05 13:32 | 51.22191 | 6.88288 | 2030 ft | 126 kts | 302° |
| 2026-05-05 13:32 | 51.22573 | 6.87037 | 2031 ft | 124 kts | 301° |
| 2026-05-05 13:32 | 51.22939 | 6.85797 | 2031 ft | 124 kts | 301° |
| 2026-05-05 13:32 | 51.23327 | 6.84563 | 2030 ft | 125 kts | 301° |
| 2026-05-05 13:33 | 51.23723 | 6.83316 | 2030 ft | 126 kts | 301° |
| 2026-05-05 13:33 | 51.24115 | 6.82071 | 2030 ft | 126 kts | 303° |
| 2026-05-05 13:33 | 51.24489 | 6.80807 | 2029 ft | 126 kts | 300° |
| 2026-05-05 13:33 | 51.24868 | 6.79547 | 2028 ft | 126 kts | 301° |
| 2026-05-05 13:34 | 51.25208 | 6.78258 | 1909 ft | 122 kts | 291° |
| 2026-05-05 13:34 | 51.25372 | 6.76965 | 1710 ft | 118 kts | 287° |
| 2026-05-05 13:34 | 51.25533 | 6.75674 | 1410 ft | 124 kts | 285° |
| 2026-05-05 13:34 | 51.25776 | 6.74460 | 1035 ft | 107 kts | 311° |
| 2026-05-05 13:35 | 51.26256 | 6.73713 | 849 ft | 89 kts | 327° |
| 2026-05-05 13:35 | 51.26703 | 6.73065 | 745 ft | 86 kts | 334° |
| 2026-05-05 13:35 | 51.27193 | 6.73466 | 545 ft | 103 kts | 62° |
| 2026-05-05 13:35 | 51.27606 | 6.74497 | 327 ft | 115 kts | 47° |
| 2026-05-05 13:36 | 51.28088 | 6.75481 | 207 ft | 106 kts | 49° |
| 2026-05-05 13:36 | 51.28495 | 6.76342 | 148 ft | 93 kts | 47° |
| 2026-05-05 13:36 | 51.28885 | 6.77147 | 148 ft | 94 kts | 48° |
| 2026-05-05 13:36 | 51.29288 | 6.78019 | 340 ft | 97 kts | 47° |
| 2026-05-05 13:37 | 51.29674 | 6.78901 | 597 ft | 95 kts | 53° |
| 2026-05-05 13:37 | 51.30063 | 6.79772 | 776 ft | 96 kts | 45° |
| 2026-05-05 13:37 | 51.30479 | 6.80696 | 856 ft | 106 kts | 68° |
| 2026-05-05 13:37 | 51.30179 | 6.81772 | 1001 ft | 121 kts | 137° |
| 2026-05-05 13:38 | 51.29436 | 6.82398 | 1161 ft | 124 kts | 182° |
| 2026-05-05 13:38 | 51.28634 | 6.81821 | 1196 ft | 131 kts | 222° |
| 2026-05-05 13:38 | 51.27948 | 6.80798 | 1236 ft | 137 kts | 230° |
| 2026-05-05 13:38 | 51.27347 | 6.79630 | 1258 ft | 135 kts | 236° |
| 2026-05-05 13:39 | 51.26809 | 6.78454 | 1253 ft | 123 kts | 238° |
| 2026-05-05 13:39 | 51.26356 | 6.77333 | 1209 ft | 123 kts | 242° |
| 2026-05-05 13:39 | 51.25902 | 6.76128 | 1173 ft | 128 kts | 249° |
| 2026-05-05 13:39 | 51.26087 | 6.75004 | 930 ft | 104 kts | 323° |
| 2026-05-05 13:40 | 51.26669 | 6.74454 | 643 ft | 94 kts | 335° |
| 2026-05-05 13:40 | 51.27228 | 6.74028 | 640 ft | 80 kts | 349° |
| 2026-05-05 13:40 | 51.27589 | 6.74449 | 444 ft | 70 kts | 55° |
| 2026-05-05 13:40 | 51.27848 | 6.74996 | 199 ft | 57 kts | 48° |
| 2026-05-05 13:41 | 51.28095 | 6.75478 | 148 ft | 61 kts | 48° |
| 2026-05-05 13:41 | 51.28273 | 6.75856 | 120 ft | 20 kts | 47° |
| 2026-05-05 13:41 | 51.28269 | 6.76008 | 121 ft | 15 kts | 145° |
| 2026-05-05 13:41 | 51.28220 | 6.76058 | 123 ft | 0 kts | 150° |
| 2026-05-05 13:43 | 51.28219 | 6.76059 | 123 ft | 1 kts | 150° |
| 2026-05-05 13:43 | 51.28175 | 6.76095 | 121 ft | 8 kts | 183° |
| 2026-05-05 13:43 | 51.28107 | 6.76027 | 124 ft | 14 kts | 172° |
| 2026-05-05 13:43 | 51.28016 | 6.76046 | 123 ft | 13 kts | 181° |
| 2026-05-05 13:44 | 51.27911 | 6.76047 | 123 ft | 18 kts | 184° |
| 2026-05-05 13:44 | 51.27799 | 6.76043 | 123 ft | 15 kts | 181° |
| 2026-05-05 13:44 | 51.27693 | 6.76041 | 124 ft | 17 kts | 181° |
| 2026-05-05 13:44 | 51.27585 | 6.76073 | 125 ft | 17 kts | 152° |
| 2026-05-05 13:45 | 51.27489 | 6.76067 | 125 ft | 15 kts | 245° |
| 2026-05-05 13:45 | 51.27475 | 6.75915 | 125 ft | 16 kts | 288° |
| 2026-05-05 13:45 | 51.27447 | 6.75743 | 124 ft | 17 kts | 243° |
| 2026-05-05 13:45 | 51.27489 | 6.75620 | 124 ft | 14 kts | 333° |
| 2026-05-05 13:46 | 51.27495 | 6.75521 | 119 ft | 14 kts | 236° |
| 2026-05-05 13:46 | 51.27470 | 6.75360 | 117 ft | 15 kts | 278° |
| 2026-05-05 13:46 | 51.27518 | 6.75240 | 116 ft | 12 kts | 32° |
| 2026-05-05 13:46 | 51.27513 | 6.75348 | 118 ft | 8 kts | 66° |
| 2026-05-05 13:47 | 51.27524 | 6.75334 | 118 ft | 0 kts | 245° |